createdAt,value
2022-08-03T00:00:24.075Z,100307.75
2022-08-03T00:02:50.821Z,100306.34
2022-08-03T00:05:17.579Z,100305.50
2022-08-03T00:07:44.190Z,100299.50
2022-08-03T00:10:11.307Z,100303.13
2022-08-03T00:12:37.917Z,100308.28
2022-08-03T00:15:05.766Z,100305.25
2022-08-03T00:17:52.618Z,100304.41
2022-08-03T00:20:22.080Z,100309.75
2022-08-03T00:22:49.477Z,100309.72
2022-08-03T00:25:19.169Z,100303.75
2022-08-03T00:27:45.822Z,100307.22
2022-08-03T00:30:15.217Z,100300.16
2022-08-03T00:32:45.062Z,100302.31
2022-08-03T00:35:32.511Z,100303.09
2022-08-03T00:37:59.656Z,100301.69
2022-08-03T00:40:26.540Z,100303.34
2022-08-03T00:42:58.143Z,100299.50
2022-08-03T00:45:27.344Z,100297.84
2022-08-03T00:47:54.589Z,100298.34
2022-08-03T00:50:22.984Z,100296.66
2022-08-03T00:52:51.918Z,100299.06
2022-08-03T00:55:18.753Z,100298.25
2022-08-03T00:57:45.975Z,100300.13
2022-08-03T01:00:14.945Z,100301.22
2022-08-03T01:02:41.704Z,100288.16
2022-08-03T01:05:09.932Z,100289.22
2022-08-03T01:08:14.331Z,100296.50
2022-08-03T01:10:51.716Z,100291.00
2022-08-03T01:14:01.226Z,100295.31
2022-08-03T01:16:35.686Z,100294.31
2022-08-03T01:19:36.246Z,100285.66
2022-08-03T01:22:40.064Z,100288.09
2022-08-03T01:25:38.567Z,100295.72
2022-08-03T01:28:33.219Z,100291.59
2022-08-03T01:31:04.410Z,100294.50
2022-08-03T01:33:37.542Z,100288.56
2022-08-03T01:36:07.787Z,100290.44
2022-08-03T01:38:36.911Z,100295.06
2022-08-03T01:41:09.415Z,100293.44
2022-08-03T01:44:26.792Z,100288.00
2022-08-03T01:46:25.729Z,100285.78
2022-08-03T01:48:53.873Z,100282.97
2022-08-03T01:51:21.151Z,100278.72
2022-08-03T01:53:51.203Z,100278.88
2022-08-03T01:56:19.248Z,100280.47
2022-08-03T01:58:46.632Z,100279.09
2022-08-03T02:01:14.163Z,100276.72
2022-08-03T02:04:00.540Z,100275.09
2022-08-03T02:07:01.238Z,100278.59
2022-08-03T02:09:17.719Z,100280.47
2022-08-03T02:11:45.186Z,100278.81
2022-08-03T02:14:11.894Z,100281.25
2022-08-03T02:16:38.545Z,100282.63
2022-08-03T02:19:06.674Z,100282.94
2022-08-03T02:21:55.798Z,100272.34
2022-08-03T02:24:22.939Z,100282.56
2022-08-03T02:26:49.884Z,100272.00
2022-08-03T02:29:21.056Z,100273.13
2022-08-03T02:32:10.398Z,100263.13
2022-08-03T02:34:37.913Z,100262.56
2022-08-03T02:37:04.684Z,100262.28
2022-08-03T02:39:35.319Z,100264.16
2022-08-03T02:42:05.484Z,100265.03
2022-08-03T02:44:33.763Z,100268.25
2022-08-03T02:47:11.143Z,100260.44
2022-08-03T02:49:50.650Z,100263.38
2022-08-03T02:52:21.842Z,100262.31
2022-08-03T02:54:49.651Z,100264.97
2022-08-03T02:57:16.917Z,100259.78
2022-08-03T02:59:44.269Z,100266.06
2022-08-03T03:02:11.670Z,100259.00
2022-08-03T03:04:38.835Z,100261.44
2022-08-03T03:07:26.169Z,100262.22
2022-08-03T03:09:56.379Z,100264.84
2022-08-03T03:12:24.103Z,100262.41
2022-08-03T03:14:50.764Z,100267.31
2022-08-03T03:17:18.170Z,100268.91
2022-08-03T03:19:45.608Z,100260.97
2022-08-03T03:22:12.762Z,100272.09
2022-08-03T03:24:39.947Z,100263.41
2022-08-03T03:27:06.766Z,100264.75
2022-08-03T03:29:39.306Z,100270.91
2022-08-03T03:32:08.473Z,100273.25
2022-08-03T03:34:36.758Z,100272.50
2022-08-03T03:37:03.498Z,100271.22
2022-08-03T03:39:30.153Z,100269.31
2022-08-03T03:41:57.402Z,100264.09
2022-08-03T03:44:28.962Z,100270.28
2022-08-03T03:46:57.684Z,100276.34
2022-08-03T03:49:24.736Z,100273.56
2022-08-03T03:51:55.543Z,100267.31
2022-08-03T03:54:22.231Z,100272.75
2022-08-03T03:56:52.357Z,100269.78
2022-08-03T03:59:19.066Z,100267.88
2022-08-03T04:01:45.891Z,100270.59
2022-08-03T04:04:31.229Z,100263.28
2022-08-03T04:07:16.568Z,100270.66
2022-08-03T04:10:14.514Z,100267.19
2022-08-03T04:12:49.898Z,100274.34
2022-08-03T04:15:20.074Z,100276.84
2022-08-03T04:17:47.098Z,100282.56
2022-08-03T04:20:14.191Z,100277.75
2022-08-03T04:22:42.053Z,100282.16
2022-08-03T04:25:18.087Z,100280.81
2022-08-03T04:27:46.822Z,100270.13
2022-08-03T04:30:33.863Z,100274.31
2022-08-03T04:33:01.848Z,100263.63
2022-08-03T04:36:00.908Z,100258.66
2022-08-03T04:38:23.308Z,100242.09
2022-08-03T04:40:50.160Z,100248.78
2022-08-03T04:43:18.616Z,100250.81
2022-08-03T04:45:47.331Z,100238.34
2022-08-03T04:48:14.528Z,100242.94
2022-08-03T04:50:41.676Z,100241.56
2022-08-03T04:53:08.910Z,100235.25
2022-08-03T04:55:36.544Z,100240.56
2022-08-03T04:58:06.303Z,100244.56
2022-08-03T05:00:32.922Z,100250.00
2022-08-03T05:03:00.977Z,100244.59
2022-08-03T05:05:34.656Z,100249.44
2022-08-03T05:08:14.390Z,100244.41
2022-08-03T05:10:41.146Z,100242.38
2022-08-03T05:13:12.048Z,100234.13
2022-08-03T05:15:43.276Z,100236.47
2022-08-03T05:18:13.941Z,100233.53
2022-08-03T05:20:41.596Z,100228.38
2022-08-03T05:23:08.283Z,100228.25
2022-08-03T05:25:37.210Z,100227.16
2022-08-03T05:28:06.066Z,100236.31
2022-08-03T05:30:34.102Z,100234.38
2022-08-03T05:33:02.465Z,100232.59
2022-08-03T05:35:55.908Z,100235.97
2022-08-03T05:38:23.773Z,100245.56
2022-08-03T05:40:56.751Z,100240.66
2022-08-03T05:43:24.775Z,100234.78
2022-08-03T05:46:11.581Z,100244.63
2022-08-03T05:48:38.391Z,100235.97
2022-08-03T05:51:07.464Z,100240.28
2022-08-03T05:53:34.394Z,100240.22
2022-08-03T05:56:14.553Z,100234.56
2022-08-03T05:58:47.239Z,100230.69
2022-08-03T06:01:15.421Z,100230.69
2022-08-03T06:03:42.112Z,100233.09
2022-08-03T06:06:08.775Z,100239.78
2022-08-03T06:08:35.444Z,100242.97
2022-08-03T06:11:02.179Z,100229.88
2022-08-03T06:13:28.904Z,100226.13
2022-08-03T06:15:55.635Z,100231.16
2022-08-03T06:18:23.261Z,100235.75
2022-08-03T06:20:50.781Z,100236.50
2022-08-03T06:23:19.272Z,100238.91
2022-08-03T06:25:46.137Z,100239.59
2022-08-03T06:31:03.611Z,100249.28
2022-08-03T06:34:30.045Z,100251.69
2022-08-03T06:36:20.559Z,100249.47
2022-08-03T06:38:47.225Z,100256.50
2022-08-03T06:41:13.981Z,100255.66
2022-08-03T06:44:03.289Z,100250.31
2022-08-03T06:46:27.571Z,100247.03
2022-08-03T06:48:55.640Z,100253.66
2022-08-03T06:51:23.640Z,100244.84
2022-08-03T06:54:10.885Z,100245.06
2022-08-03T06:56:37.529Z,100258.22
2022-08-03T06:59:06.444Z,100252.06
2022-08-03T07:01:33.171Z,100240.81
2022-08-03T07:04:00.582Z,100251.59
2022-08-03T07:06:27.353Z,100250.63
2022-08-03T07:08:58.945Z,100252.78
2022-08-03T07:11:27.443Z,100252.19
2022-08-03T07:14:01.476Z,100252.34
2022-08-03T07:16:28.133Z,100251.81
2022-08-03T07:18:54.761Z,100262.75
2022-08-03T07:21:21.417Z,100261.00
2022-08-03T07:23:49.979Z,100258.94
2022-08-03T07:26:16.675Z,100269.06
2022-08-03T07:28:43.661Z,100264.13
2022-08-03T07:31:10.330Z,100278.72
2022-08-03T07:33:37.045Z,100277.44
2022-08-03T07:36:07.056Z,100267.00
2022-08-03T07:38:36.134Z,100274.97
2022-08-03T07:41:03.596Z,100274.16
2022-08-03T07:43:30.384Z,100268.53
2022-08-03T07:45:57.048Z,100278.56
2022-08-03T07:48:23.747Z,100275.75
2022-08-03T07:50:50.767Z,100277.97
2022-08-03T07:53:17.412Z,100276.88
2022-08-03T07:55:44.005Z,100280.03
2022-08-03T07:58:16.519Z,100274.72
2022-08-03T08:00:46.075Z,100275.16
2022-08-03T08:03:13.335Z,100276.72
2022-08-03T08:05:40.260Z,100275.84
2022-08-03T08:08:07.301Z,100267.81
2022-08-03T08:10:35.108Z,100268.69
2022-08-03T08:13:02.735Z,100273.59
2022-08-03T08:15:31.644Z,100278.72
2022-08-03T08:18:00.174Z,100280.44
2022-08-03T08:20:32.846Z,100272.03
2022-08-03T08:23:19.963Z,100274.28
2022-08-03T08:25:51.908Z,100274.69
2022-08-03T08:28:31.636Z,100282.88
2022-08-03T08:31:00.029Z,100280.34
2022-08-03T08:33:37.673Z,100273.94
2022-08-03T08:36:13.296Z,100276.25
2022-08-03T08:38:42.675Z,100275.53
2022-08-03T08:41:10.883Z,100274.00
2022-08-03T08:43:37.723Z,100277.59
2022-08-03T08:46:08.023Z,100277.88
2022-08-03T08:48:36.159Z,100277.28
2022-08-03T08:51:03.234Z,100279.00
2022-08-03T08:53:30.248Z,100274.84
2022-08-03T08:56:01.605Z,100268.56
2022-08-03T08:58:38.971Z,100269.25
2022-08-03T09:01:05.814Z,100261.06
2022-08-03T09:03:36.134Z,100262.41
2022-08-03T09:06:03.683Z,100258.22
2022-08-03T09:08:31.643Z,100263.22
2022-08-03T09:10:58.535Z,100257.06
2022-08-03T09:13:25.537Z,100268.03
2022-08-03T09:16:24.652Z,100263.69
2022-08-03T09:18:53.402Z,100262.69
2022-08-03T09:21:32.902Z,100256.75
2022-08-03T09:24:04.742Z,100254.03
2022-08-03T09:26:34.254Z,100261.78
2022-08-03T09:29:14.606Z,100252.38
2022-08-03T09:31:45.429Z,100261.47
2022-08-03T09:34:14.759Z,100250.09
2022-08-03T09:36:46.769Z,100249.31
2022-08-03T09:39:18.515Z,100250.09
2022-08-03T09:41:50.547Z,100250.84
2022-08-03T09:44:24.868Z,100243.41
2022-08-03T09:46:55.000Z,100252.50
2022-08-03T09:49:21.804Z,100244.91
2022-08-03T09:52:31.452Z,100251.78
2022-08-03T09:54:35.506Z,100248.31
2022-08-03T09:57:02.261Z,100243.81
2022-08-03T09:59:30.705Z,100246.84
2022-08-03T10:01:59.764Z,100246.84
2022-08-03T10:04:26.648Z,100247.00
2022-08-03T10:07:10.595Z,100243.31
2022-08-03T10:09:37.830Z,100242.16
2022-08-03T10:12:12.690Z,100247.50
2022-08-03T10:14:41.795Z,100245.81
2022-08-03T10:17:09.550Z,100242.78
2022-08-03T10:19:36.539Z,100248.88
2022-08-03T10:22:07.800Z,100248.31
2022-08-03T10:24:37.529Z,100242.50
2022-08-03T10:27:07.291Z,100236.19
2022-08-03T10:29:47.449Z,100235.44
2022-08-03T10:32:19.098Z,100237.44
2022-08-03T10:34:46.828Z,100235.09
2022-08-03T10:37:15.488Z,100233.44
2022-08-03T10:39:53.543Z,100226.78
2022-08-03T10:42:24.590Z,100238.56
2022-08-03T10:45:03.579Z,100233.25
2022-08-03T10:47:31.690Z,100234.09
2022-08-03T10:50:03.022Z,100227.41
2022-08-03T10:52:38.246Z,100232.41
2022-08-03T10:55:58.734Z,100227.94
2022-08-03T10:58:53.151Z,100230.66
2022-08-03T11:02:00.634Z,100216.75
2022-08-03T11:04:29.832Z,100221.00
2022-08-03T11:07:22.937Z,100221.81
2022-08-03T11:09:54.529Z,100228.59
2022-08-03T11:12:39.510Z,100212.84
2022-08-03T11:15:08.699Z,100226.22
2022-08-03T11:17:46.582Z,100216.59
2022-08-03T11:20:54.858Z,100219.25
2022-08-03T11:24:03.150Z,100217.59
2022-08-03T11:26:33.004Z,100214.69
2022-08-03T11:29:27.384Z,100221.81
2022-08-03T11:31:54.110Z,100206.41
2022-08-03T11:34:20.869Z,100207.44
2022-08-03T11:37:21.681Z,100207.75
2022-08-03T11:39:50.920Z,100208.47
2022-08-03T11:42:27.095Z,100205.53
2022-08-03T11:44:57.854Z,100217.50
2022-08-03T11:47:29.001Z,100210.22
2022-08-03T11:50:00.487Z,100216.88
2022-08-03T11:52:37.961Z,100217.63
2022-08-03T11:55:10.156Z,100211.97
2022-08-03T11:59:10.719Z,100216.41
2022-08-03T12:00:31.284Z,100214.72
2022-08-03T12:03:11.152Z,100213.44
2022-08-03T12:05:41.070Z,100208.91
2022-08-03T12:08:10.313Z,100203.06
2022-08-03T12:10:38.064Z,100209.06
2022-08-03T12:14:33.013Z,100203.97
2022-08-03T12:15:59.214Z,100199.13
2022-08-03T12:18:26.379Z,100202.16
2022-08-03T12:20:54.280Z,100196.28
2022-08-03T12:23:20.924Z,100197.09
2022-08-03T12:25:49.669Z,100195.03
2022-08-03T12:28:36.561Z,100193.59
2022-08-03T12:31:07.422Z,100191.28
2022-08-03T12:34:02.380Z,100189.00
2022-08-03T12:36:30.841Z,100186.38
2022-08-03T12:39:06.085Z,100187.84
2022-08-03T12:41:35.359Z,100188.84
2022-08-03T12:44:06.448Z,100183.16
2022-08-03T12:46:46.986Z,100188.63
2022-08-03T12:49:17.077Z,100192.47
2022-08-03T12:51:43.696Z,100186.94
2022-08-03T12:54:16.795Z,100183.41
2022-08-03T12:57:06.126Z,100182.97
2022-08-03T12:59:40.806Z,100191.34
2022-08-03T13:02:23.707Z,100182.09
2022-08-03T13:04:52.070Z,100181.63
2022-08-03T13:07:20.102Z,100183.75
2022-08-03T13:09:55.891Z,100179.38
2022-08-03T13:12:24.469Z,100191.44
2022-08-03T13:14:52.779Z,100186.13
2022-08-03T13:17:20.161Z,100179.09
2022-08-03T13:19:47.795Z,100174.66
2022-08-03T13:22:21.853Z,100167.66
2022-08-03T13:24:50.410Z,100170.31
2022-08-03T13:28:01.165Z,100166.94
2022-08-03T13:30:07.749Z,100170.13
2022-08-03T13:32:34.974Z,100165.09
2022-08-03T13:35:03.088Z,100166.53
2022-08-03T13:37:32.101Z,100164.81
2022-08-03T13:40:04.503Z,100155.69
2022-08-03T13:42:34.539Z,100167.13
2022-08-03T13:45:01.525Z,100174.25
2022-08-03T13:47:28.303Z,100167.75
2022-08-03T13:50:01.258Z,100165.19
2022-08-03T13:52:33.582Z,100160.00
2022-08-03T13:55:01.167Z,100156.91
2022-08-03T13:58:02.971Z,100150.34
2022-08-03T14:00:26.285Z,100152.28
2022-08-03T14:03:13.813Z,100150.19
2022-08-03T14:05:41.243Z,100152.28
2022-08-03T14:08:08.607Z,100143.88
2022-08-03T14:10:40.620Z,100147.97
2022-08-03T14:13:10.013Z,100131.94
2022-08-03T14:15:37.991Z,100140.53
2022-08-03T14:18:12.998Z,100147.56
2022-08-03T14:20:49.022Z,100145.50
2022-08-03T14:23:20.084Z,100139.06
2022-08-03T14:25:51.756Z,100138.69
2022-08-03T14:28:21.111Z,100133.81
2022-08-03T14:30:52.648Z,100132.22
2022-08-03T14:33:19.924Z,100136.72
2022-08-03T14:35:46.675Z,100126.94
2022-08-03T14:38:13.679Z,100129.09
2022-08-03T14:40:40.355Z,100127.19
2022-08-03T14:43:08.632Z,100130.31
2022-08-03T14:45:35.389Z,100131.41
2022-08-03T14:50:31.971Z,100132.56
2022-08-03T14:50:51.604Z,100128.63
2022-08-03T14:53:19.327Z,100125.16
2022-08-03T14:55:55.285Z,100127.56
2022-08-03T14:58:23.828Z,100128.50
2022-08-03T15:00:51.518Z,100122.06
2022-08-03T15:03:25.514Z,100119.66
2022-08-03T15:05:53.698Z,100120.00
2022-08-03T15:08:21.253Z,100123.56
2022-08-03T15:10:51.415Z,100115.28
2022-08-03T15:13:21.827Z,100108.81
2022-08-03T15:15:52.002Z,100109.94
2022-08-03T15:18:20.100Z,100102.47
2022-08-03T15:20:53.299Z,100093.78
2022-08-03T15:23:22.635Z,100092.47
2022-08-03T15:26:29.083Z,100100.47
2022-08-03T15:28:38.319Z,100101.41
2022-08-03T15:31:06.220Z,100107.44
2022-08-03T15:33:32.901Z,100103.34
2022-08-03T15:36:01.980Z,100106.22
2022-08-03T15:38:35.889Z,100101.84
2022-08-03T15:41:02.649Z,100096.72
2022-08-03T15:43:29.304Z,100102.34
2022-08-03T15:46:26.637Z,100101.56
2022-08-03T15:48:42.842Z,100096.50
2022-08-03T15:51:10.064Z,100097.72
2022-08-03T15:53:37.248Z,100089.22
2022-08-03T15:56:09.832Z,100096.22
2022-08-03T15:59:09.156Z,100095.75
2022-08-03T16:01:26.340Z,100090.63
2022-08-03T16:03:53.083Z,100091.56
2022-08-03T16:06:29.378Z,100087.81
2022-08-03T16:09:01.699Z,100087.19
2022-08-03T16:11:28.630Z,100094.25
2022-08-03T16:14:13.002Z,100090.69
2022-08-03T16:16:43.257Z,100094.94
2022-08-03T16:19:20.481Z,100093.63
2022-08-03T16:21:48.464Z,100103.16
2022-08-03T16:24:27.716Z,100101.75
2022-08-03T16:26:55.326Z,100107.09
2022-08-03T16:29:23.273Z,100085.88
2022-08-03T16:31:53.487Z,100089.41
2022-08-03T16:34:21.037Z,100096.47
2022-08-03T16:36:47.829Z,100093.13
2022-08-03T16:39:14.519Z,100093.00
2022-08-03T16:41:54.347Z,100091.16
2022-08-03T16:44:30.929Z,100094.88
2022-08-03T16:46:59.515Z,100086.69
2022-08-03T16:49:54.245Z,100091.53
2022-08-03T16:52:13.305Z,100095.13
2022-08-03T16:54:40.205Z,100094.78
2022-08-03T16:57:07.302Z,100088.88
2022-08-03T16:59:36.396Z,100093.16
2022-08-03T17:02:09.989Z,100094.38
2022-08-03T17:04:37.238Z,100085.38
2022-08-03T17:07:07.823Z,100089.91
2022-08-03T17:09:38.703Z,100087.28
2022-08-03T17:12:06.346Z,100094.69
2022-08-03T17:14:33.978Z,100089.09
2022-08-03T17:17:04.592Z,100093.38
2022-08-03T17:19:40.654Z,100097.00
2022-08-03T17:22:18.042Z,100098.94
2022-08-03T17:24:47.343Z,100101.94
2022-08-03T17:28:41.743Z,100104.22
2022-08-03T17:30:11.883Z,100096.69
2022-08-03T17:32:42.998Z,100104.47
2022-08-03T17:35:23.511Z,100097.22
2022-08-03T17:37:57.996Z,100101.25
2022-08-03T17:40:31.690Z,100104.63
2022-08-03T17:42:59.908Z,100102.25
2022-08-03T17:45:51.929Z,100110.09
2022-08-03T17:48:18.524Z,100108.34
2022-08-03T17:50:54.227Z,100105.81
2022-08-03T17:53:28.649Z,100109.53
2022-08-03T17:56:09.157Z,100110.03
2022-08-03T17:59:10.655Z,100107.63
2022-08-03T18:02:26.474Z,100111.63
2022-08-03T18:05:16.569Z,100119.50
2022-08-03T18:07:59.229Z,100119.50
2022-08-03T18:10:28.504Z,100124.66
2022-08-03T18:13:03.882Z,100115.41
2022-08-03T18:15:47.425Z,100117.97
2022-08-03T18:18:16.721Z,100122.47
2022-08-03T18:21:04.485Z,100121.91
2022-08-03T18:23:36.801Z,100119.09
2022-08-03T18:26:07.322Z,100115.00
2022-08-03T18:28:43.441Z,100121.69
2022-08-03T18:31:11.989Z,100123.34
2022-08-03T18:34:32.526Z,100123.22
2022-08-03T18:36:29.914Z,100126.19
2022-08-03T18:39:01.718Z,100119.00
2022-08-03T18:41:32.246Z,100127.19
2022-08-03T18:44:07.845Z,100122.53
2022-08-03T18:47:07.321Z,100127.53
2022-08-03T18:50:21.142Z,100124.47
2022-08-03T18:53:05.439Z,100126.19
2022-08-03T18:56:07.497Z,100133.91
2022-08-03T18:58:46.528Z,100127.25
2022-08-03T19:02:00.108Z,100136.47
2022-08-03T19:04:41.081Z,100131.81
2022-08-03T19:07:09.489Z,100136.25
2022-08-03T19:09:47.607Z,100130.38
2022-08-03T19:12:30.789Z,100136.97
2022-08-03T19:15:05.874Z,100141.44
2022-08-03T19:17:52.794Z,100143.81
2022-08-03T19:20:25.833Z,100152.13
2022-08-03T19:22:54.292Z,100152.19
2022-08-03T19:25:35.160Z,100151.16
2022-08-03T19:28:08.611Z,100156.34
2022-08-03T19:30:38.861Z,100157.75
2022-08-03T19:33:13.635Z,100155.63
2022-08-03T19:35:51.562Z,100155.78
2022-08-03T19:38:27.655Z,100158.69
2022-08-03T19:41:02.203Z,100163.16
2022-08-03T19:43:53.210Z,100161.75
2022-08-03T19:46:21.968Z,100169.72
2022-08-03T19:48:56.169Z,100165.72
2022-08-03T19:51:52.608Z,100165.00
2022-08-03T19:54:15.182Z,100159.69
2022-08-03T19:56:46.253Z,100169.84
2022-08-03T19:59:19.470Z,100168.69
2022-08-03T20:01:50.830Z,100167.72
2022-08-03T20:04:20.629Z,100160.94
2022-08-03T20:06:49.644Z,100164.53
2022-08-03T20:09:17.381Z,100163.50
2022-08-03T20:14:31.167Z,100164.16
2022-08-03T20:16:58.625Z,100166.91
2022-08-03T20:19:25.268Z,100161.94
2022-08-03T20:22:01.916Z,100162.53
2022-08-03T20:24:34.511Z,100162.09
2022-08-03T20:27:03.781Z,100163.25
2022-08-03T20:30:05.011Z,100160.53
2022-08-03T20:32:28.101Z,100169.25
2022-08-03T20:34:54.850Z,100168.50
2022-08-03T20:37:22.165Z,100172.34
2022-08-03T20:39:56.889Z,100173.44
2022-08-03T20:42:23.821Z,100165.53
2022-08-03T20:45:04.333Z,100174.31
2022-08-03T20:47:35.554Z,100171.34
2022-08-03T20:50:07.544Z,100168.91
2022-08-03T20:52:53.234Z,100172.16
2022-08-03T20:55:20.281Z,100162.41
2022-08-03T20:57:49.094Z,100164.53
2022-08-03T21:00:21.515Z,100162.41
2022-08-03T21:02:49.118Z,100166.81
2022-08-03T21:05:15.816Z,100165.50
2022-08-03T21:08:05.288Z,100166.88
2022-08-03T21:10:38.422Z,100176.06
2022-08-03T21:13:11.193Z,100163.78
2022-08-03T21:13:17.150Z,100174.72
2022-08-03T21:16:05.453Z,100174.84
2022-08-03T21:18:49.153Z,100174.56
2022-08-03T21:21:18.698Z,100173.00
2022-08-03T21:23:52.550Z,100173.34
2022-08-03T21:26:22.158Z,100173.41
2022-08-03T21:28:51.006Z,100172.88
2022-08-03T21:31:24.554Z,100173.25
2022-08-03T21:33:56.675Z,100177.25
2022-08-03T21:36:25.767Z,100168.78
2022-08-03T21:38:55.825Z,100176.72
2022-08-03T21:41:23.852Z,100172.06
2022-08-03T21:43:50.517Z,100175.91
2022-08-03T21:46:18.910Z,100179.16
2022-08-03T21:48:48.270Z,100174.94
2022-08-03T21:51:17.312Z,100174.50
2022-08-03T21:54:00.278Z,100174.44
2022-08-03T21:56:42.343Z,100179.75
2022-08-03T21:59:18.474Z,100185.28
2022-08-03T22:01:49.397Z,100189.38
2022-08-03T22:04:53.486Z,100184.13
2022-08-03T22:07:07.865Z,100187.28
2022-08-03T22:09:35.599Z,100184.56
2022-08-03T22:12:02.215Z,100191.19
2022-08-03T22:14:29.545Z,100193.50
2022-08-03T22:16:56.698Z,100190.19
2022-08-03T22:19:23.389Z,100188.75
2022-08-03T22:21:50.194Z,100183.06
2022-08-03T22:24:19.677Z,100183.13
2022-08-03T22:27:09.707Z,100176.75
2022-08-03T22:29:36.910Z,100185.53
2022-08-03T22:32:03.780Z,100183.84
2022-08-03T22:34:30.549Z,100193.75
2022-08-03T22:37:01.139Z,100195.38
2022-08-03T22:39:30.650Z,100193.88
2022-08-03T22:41:59.034Z,100201.22
2022-08-03T22:44:27.253Z,100198.28
2022-08-03T22:46:54.020Z,100200.56
2022-08-03T22:49:22.937Z,100204.75
2022-08-03T22:51:51.993Z,100201.03
2022-08-03T22:54:18.919Z,100211.31
2022-08-03T22:56:49.899Z,100210.56
2022-08-03T22:59:40.145Z,100207.94
2022-08-03T23:02:20.322Z,100207.44
2022-08-03T23:04:53.367Z,100215.69
2022-08-03T23:07:22.582Z,100214.63
2022-08-03T23:09:49.517Z,100216.66
2022-08-03T23:12:20.119Z,100206.41
2022-08-03T23:14:55.054Z,100212.50
2022-08-03T23:17:23.075Z,100212.53
2022-08-03T23:19:54.024Z,100219.28
2022-08-03T23:22:30.212Z,100209.50
2022-08-03T23:25:01.375Z,100217.19
2022-08-03T23:27:28.095Z,100216.88
2022-08-03T23:29:56.766Z,100218.78
2022-08-03T23:32:25.646Z,100218.25
2022-08-03T23:35:16.902Z,100219.91
2022-08-03T23:38:04.830Z,100212.88
2022-08-03T23:40:31.706Z,100207.69
2022-08-03T23:42:58.604Z,100203.34
2022-08-03T23:45:29.100Z,100212.03
2022-08-03T23:47:55.825Z,100211.06
2022-08-03T23:50:22.725Z,100211.38
2022-08-03T23:53:16.771Z,100212.00
2022-08-03T23:56:01.891Z,100214.25
2022-08-03T23:58:34.787Z,100215.63
